sensor_id;sensor_type;location;lat;lon;timestamp;P1;durP1;ratioP1;P2;durP2;ratioP2
65375;SDS011;51976;47.332;9.404;2024-01-16T00:00:21;9.15;;;3.92;;
65375;SDS011;51976;47.332;9.404;2024-01-16T00:02:47;7.93;;;4.00;;
65375;SDS011;51976;47.332;9.404;2024-01-16T00:05:13;8.63;;;4.20;;
65375;SDS011;51976;47.332;9.404;2024-01-16T00:07:38;9.32;;;4.40;;
65375;SDS011;51976;47.332;9.404;2024-01-16T00:10:06;8.57;;;4.40;;
65375;SDS011;51976;47.332;9.404;2024-01-16T00:12:33;7.50;;;4.22;;
65375;SDS011;51976;47.332;9.404;2024-01-16T00:14:58;9.88;;;4.72;;
65375;SDS011;51976;47.332;9.404;2024-01-16T00:17:23;6.78;;;3.85;;
65375;SDS011;51976;47.332;9.404;2024-01-16T00:19:49;7.60;;;3.80;;
65375;SDS011;51976;47.332;9.404;2024-01-16T00:22:14;10.02;;;4.28;;
65375;SDS011;51976;47.332;9.404;2024-01-16T00:24:40;10.85;;;4.63;;
65375;SDS011;51976;47.332;9.404;2024-01-16T00:27:05;8.05;;;4.28;;
65375;SDS011;51976;47.332;9.404;2024-01-16T00:29:30;7.88;;;3.88;;
65375;SDS011;51976;47.332;9.404;2024-01-16T00:31:56;9.07;;;4.18;;
65375;SDS011;51976;47.332;9.404;2024-01-16T00:34:21;9.82;;;4.68;;
65375;SDS011;51976;47.332;9.404;2024-01-16T00:36:47;10.13;;;4.35;;
65375;SDS011;51976;47.332;9.404;2024-01-16T00:39:12;9.15;;;3.83;;
65375;SDS011;51976;47.332;9.404;2024-01-16T00:41:38;7.63;;;3.40;;
65375;SDS011;51976;47.332;9.404;2024-01-16T00:44:04;7.22;;;3.78;;
65375;SDS011;51976;47.332;9.404;2024-01-16T00:46:30;12.57;;;4.13;;
65375;SDS011;51976;47.332;9.404;2024-01-16T00:48:55;9.65;;;4.88;;
65375;SDS011;51976;47.332;9.404;2024-01-16T00:51:20;9.30;;;3.97;;
65375;SDS011;51976;47.332;9.404;2024-01-16T00:53:46;8.13;;;4.15;;
65375;SDS011;51976;47.332;9.404;2024-01-16T00:56:12;10.85;;;3.95;;
65375;SDS011;51976;47.332;9.404;2024-01-16T00:58:37;7.15;;;3.80;;
65375;SDS011;51976;47.332;9.404;2024-01-16T01:01:03;8.77;;;4.10;;
65375;SDS011;51976;47.332;9.404;2024-01-16T01:03:29;8.05;;;3.67;;
65375;SDS011;51976;47.332;9.404;2024-01-16T01:05:55;8.13;;;4.10;;
65375;SDS011;51976;47.332;9.404;2024-01-16T01:08:20;8.23;;;3.83;;
65375;SDS011;51976;47.332;9.404;2024-01-16T01:10:46;8.68;;;3.80;;
65375;SDS011;51976;47.332;9.404;2024-01-16T01:13:12;6.43;;;3.47;;
65375;SDS011;51976;47.332;9.404;2024-01-16T01:15:37;7.63;;;3.97;;
65375;SDS011;51976;47.332;9.404;2024-01-16T01:18:03;7.85;;;4.00;;
65375;SDS011;51976;47.332;9.404;2024-01-16T01:20:29;8.27;;;3.67;;
65375;SDS011;51976;47.332;9.404;2024-01-16T01:22:54;6.45;;;4.00;;
65375;SDS011;51976;47.332;9.404;2024-01-16T01:25:20;7.63;;;4.30;;
65375;SDS011;51976;47.332;9.404;2024-01-16T01:27:45;5.72;;;3.50;;
65375;SDS011;51976;47.332;9.404;2024-01-16T01:30:12;6.25;;;3.90;;
65375;SDS011;51976;47.332;9.404;2024-01-16T01:32:37;6.97;;;3.83;;
65375;SDS011;51976;47.332;9.404;2024-01-16T01:35:03;5.97;;;3.55;;
65375;SDS011;51976;47.332;9.404;2024-01-16T01:37:29;7.13;;;3.38;;
65375;SDS011;51976;47.332;9.404;2024-01-16T01:39:55;8.75;;;3.88;;
65375;SDS011;51976;47.332;9.404;2024-01-16T01:42:20;6.35;;;3.80;;
65375;SDS011;51976;47.332;9.404;2024-01-16T01:44:46;8.45;;;4.25;;
65375;SDS011;51976;47.332;9.404;2024-01-16T01:47:11;6.85;;;3.53;;
65375;SDS011;51976;47.332;9.404;2024-01-16T01:49:36;8.75;;;4.30;;
65375;SDS011;51976;47.332;9.404;2024-01-16T01:52:03;6.22;;;3.42;;
65375;SDS011;51976;47.332;9.404;2024-01-16T01:54:29;7.65;;;3.92;;
65375;SDS011;51976;47.332;9.404;2024-01-16T01:56:58;7.35;;;3.97;;
65375;SDS011;51976;47.332;9.404;2024-01-16T01:59:23;7.10;;;3.67;;
65375;SDS011;51976;47.332;9.404;2024-01-16T02:01:49;5.93;;;3.63;;
65375;SDS011;51976;47.332;9.404;2024-01-16T02:04:19;6.90;;;3.70;;
65375;SDS011;51976;47.332;9.404;2024-01-16T02:06:46;6.20;;;3.63;;
65375;SDS011;51976;47.332;9.404;2024-01-16T02:09:12;7.60;;;3.25;;
65375;SDS011;51976;47.332;9.404;2024-01-16T02:11:41;5.38;;;2.90;;
65375;SDS011;51976;47.332;9.404;2024-01-16T02:14:07;6.70;;;3.72;;
65375;SDS011;51976;47.332;9.404;2024-01-16T02:16:40;5.90;;;3.05;;
65375;SDS011;51976;47.332;9.404;2024-01-16T02:19:06;8.38;;;3.85;;
65375;SDS011;51976;47.332;9.404;2024-01-16T02:21:39;8.18;;;3.70;;
65375;SDS011;51976;47.332;9.404;2024-01-16T02:24:06;7.20;;;3.65;;
65375;SDS011;51976;47.332;9.404;2024-01-16T02:26:33;6.32;;;2.90;;
65375;SDS011;51976;47.332;9.404;2024-01-16T02:29:01;6.30;;;3.42;;
65375;SDS011;51976;47.332;9.404;2024-01-16T02:31:29;7.43;;;2.92;;
65375;SDS011;51976;47.332;9.404;2024-01-16T02:33:55;6.72;;;3.60;;
65375;SDS011;51976;47.332;9.404;2024-01-16T02:36:20;6.60;;;2.97;;
65375;SDS011;51976;47.332;9.404;2024-01-16T02:38:46;5.40;;;3.08;;
65375;SDS011;51976;47.332;9.404;2024-01-16T02:41:13;6.22;;;3.20;;
65375;SDS011;51976;47.332;9.404;2024-01-16T02:43:39;6.57;;;2.95;;
65375;SDS011;51976;47.332;9.404;2024-01-16T02:46:04;9.40;;;3.72;;
65375;SDS011;51976;47.332;9.404;2024-01-16T02:48:29;7.20;;;3.25;;
65375;SDS011;51976;47.332;9.404;2024-01-16T02:50:55;6.05;;;3.38;;
65375;SDS011;51976;47.332;9.404;2024-01-16T02:53:21;8.07;;;3.28;;
65375;SDS011;51976;47.332;9.404;2024-01-16T02:55:46;8.75;;;3.25;;
65375;SDS011;51976;47.332;9.404;2024-01-16T02:58:11;5.90;;;3.25;;
65375;SDS011;51976;47.332;9.404;2024-01-16T03:00:37;5.95;;;3.40;;
65375;SDS011;51976;47.332;9.404;2024-01-16T03:03:02;6.28;;;3.30;;
65375;SDS011;51976;47.332;9.404;2024-01-16T03:05:28;6.53;;;3.10;;
65375;SDS011;51976;47.332;9.404;2024-01-16T03:07:53;4.93;;;3.15;;
65375;SDS011;51976;47.332;9.404;2024-01-16T03:10:18;6.75;;;3.38;;
65375;SDS011;51976;47.332;9.404;2024-01-16T03:12:44;5.93;;;3.08;;
65375;SDS011;51976;47.332;9.404;2024-01-16T03:15:09;6.82;;;2.97;;
65375;SDS011;51976;47.332;9.404;2024-01-16T03:17:35;7.63;;;3.60;;
65375;SDS011;51976;47.332;9.404;2024-01-16T03:20:00;7.57;;;3.17;;
65375;SDS011;51976;47.332;9.404;2024-01-16T03:22:28;7.30;;;3.42;;
65375;SDS011;51976;47.332;9.404;2024-01-16T03:24:53;7.03;;;3.33;;
65375;SDS011;51976;47.332;9.404;2024-01-16T03:27:19;7.57;;;3.13;;
65375;SDS011;51976;47.332;9.404;2024-01-16T03:29:44;6.20;;;3.15;;
65375;SDS011;51976;47.332;9.404;2024-01-16T03:32:10;12.40;;;3.67;;
65375;SDS011;51976;47.332;9.404;2024-01-16T03:34:35;9.90;;;3.63;;
65375;SDS011;51976;47.332;9.404;2024-01-16T03:37:01;6.82;;;3.80;;
65375;SDS011;51976;47.332;9.404;2024-01-16T03:39:26;7.07;;;3.63;;
65375;SDS011;51976;47.332;9.404;2024-01-16T03:41:52;7.65;;;3.85;;
65375;SDS011;51976;47.332;9.404;2024-01-16T03:44:17;5.68;;;2.88;;
65375;SDS011;51976;47.332;9.404;2024-01-16T03:46:42;7.13;;;3.35;;
65375;SDS011;51976;47.332;9.404;2024-01-16T03:49:08;5.82;;;3.50;;
65375;SDS011;51976;47.332;9.404;2024-01-16T03:51:33;8.70;;;3.72;;
65375;SDS011;51976;47.332;9.404;2024-01-16T03:54:02;5.60;;;2.78;;
65375;SDS011;51976;47.332;9.404;2024-01-16T03:56:27;5.60;;;3.08;;
65375;SDS011;51976;47.332;9.404;2024-01-16T03:58:53;5.43;;;3.15;;
65375;SDS011;51976;47.332;9.404;2024-01-16T04:01:29;6.82;;;3.40;;
65375;SDS011;51976;47.332;9.404;2024-01-16T04:03:55;8.20;;;3.53;;
65375;SDS011;51976;47.332;9.404;2024-01-16T04:06:20;6.53;;;3.35;;
65375;SDS011;51976;47.332;9.404;2024-01-16T04:08:45;8.68;;;3.15;;
65375;SDS011;51976;47.332;9.404;2024-01-16T04:11:11;7.00;;;3.35;;
65375;SDS011;51976;47.332;9.404;2024-01-16T04:13:38;7.00;;;2.75;;
65375;SDS011;51976;47.332;9.404;2024-01-16T04:16:03;6.78;;;3.10;;
65375;SDS011;51976;47.332;9.404;2024-01-16T04:18:29;7.25;;;4.00;;
65375;SDS011;51976;47.332;9.404;2024-01-16T04:20:54;7.30;;;3.88;;
65375;SDS011;51976;47.332;9.404;2024-01-16T04:23:19;8.32;;;4.10;;
65375;SDS011;51976;47.332;9.404;2024-01-16T04:25:45;8.63;;;3.72;;
65375;SDS011;51976;47.332;9.404;2024-01-16T04:28:10;7.18;;;3.92;;
65375;SDS011;51976;47.332;9.404;2024-01-16T04:30:36;8.18;;;4.20;;
65375;SDS011;51976;47.332;9.404;2024-01-16T04:33:02;8.82;;;4.13;;
65375;SDS011;51976;47.332;9.404;2024-01-16T04:35:28;8.02;;;4.38;;
65375;SDS011;51976;47.332;9.404;2024-01-16T04:37:54;11.15;;;4.90;;
65375;SDS011;51976;47.332;9.404;2024-01-16T04:40:19;11.05;;;5.07;;
65375;SDS011;51976;47.332;9.404;2024-01-16T04:42:44;10.98;;;5.60;;
65375;SDS011;51976;47.332;9.404;2024-01-16T04:45:10;10.20;;;5.57;;
65375;SDS011;51976;47.332;9.404;2024-01-16T04:47:35;10.88;;;5.53;;
65375;SDS011;51976;47.332;9.404;2024-01-16T04:50:01;10.43;;;5.55;;
65375;SDS011;51976;47.332;9.404;2024-01-16T04:52:26;9.90;;;4.32;;
65375;SDS011;51976;47.332;9.404;2024-01-16T04:54:52;7.45;;;4.40;;
65375;SDS011;51976;47.332;9.404;2024-01-16T04:57:18;8.90;;;4.32;;
65375;SDS011;51976;47.332;9.404;2024-01-16T04:59:43;11.57;;;4.75;;
65375;SDS011;51976;47.332;9.404;2024-01-16T05:02:08;9.43;;;4.63;;
65375;SDS011;51976;47.332;9.404;2024-01-16T05:04:36;8.30;;;3.88;;
65375;SDS011;51976;47.332;9.404;2024-01-16T05:07:02;8.75;;;4.43;;
65375;SDS011;51976;47.332;9.404;2024-01-16T05:09:28;11.13;;;5.47;;
65375;SDS011;51976;47.332;9.404;2024-01-16T05:11:53;14.27;;;6.78;;
65375;SDS011;51976;47.332;9.404;2024-01-16T05:14:19;13.73;;;5.18;;
65375;SDS011;51976;47.332;9.404;2024-01-16T05:16:47;10.90;;;5.50;;
65375;SDS011;51976;47.332;9.404;2024-01-16T05:19:12;11.25;;;5.88;;
65375;SDS011;51976;47.332;9.404;2024-01-16T05:21:40;16.48;;;6.32;;
65375;SDS011;51976;47.332;9.404;2024-01-16T05:24:05;9.15;;;5.18;;
65375;SDS011;51976;47.332;9.404;2024-01-16T05:26:31;12.25;;;5.20;;
65375;SDS011;51976;47.332;9.404;2024-01-16T05:28:56;13.00;;;5.55;;
65375;SDS011;51976;47.332;9.404;2024-01-16T05:31:22;14.73;;;6.65;;
65375;SDS011;51976;47.332;9.404;2024-01-16T05:33:47;16.98;;;7.25;;
65375;SDS011;51976;47.332;9.404;2024-01-16T05:36:12;15.10;;;6.93;;
65375;SDS011;51976;47.332;9.404;2024-01-16T05:38:38;11.38;;;6.13;;
65375;SDS011;51976;47.332;9.404;2024-01-16T05:41:03;10.07;;;5.38;;
65375;SDS011;51976;47.332;9.404;2024-01-16T05:43:29;10.23;;;5.60;;
65375;SDS011;51976;47.332;9.404;2024-01-16T05:45:54;9.23;;;5.20;;
65375;SDS011;51976;47.332;9.404;2024-01-16T05:48:20;8.68;;;4.60;;
65375;SDS011;51976;47.332;9.404;2024-01-16T05:50:45;9.63;;;4.63;;
65375;SDS011;51976;47.332;9.404;2024-01-16T05:53:11;11.93;;;5.60;;
65375;SDS011;51976;47.332;9.404;2024-01-16T05:55:36;8.45;;;4.72;;
65375;SDS011;51976;47.332;9.404;2024-01-16T05:58:02;7.93;;;4.80;;
65375;SDS011;51976;47.332;9.404;2024-01-16T06:00:27;9.50;;;4.30;;
65375;SDS011;51976;47.332;9.404;2024-01-16T06:02:53;8.93;;;4.75;;
65375;SDS011;51976;47.332;9.404;2024-01-16T06:05:18;9.00;;;4.80;;
65375;SDS011;51976;47.332;9.404;2024-01-16T06:07:44;9.85;;;5.03;;
65375;SDS011;51976;47.332;9.404;2024-01-16T06:10:11;9.27;;;4.80;;
65375;SDS011;51976;47.332;9.404;2024-01-16T06:12:38;9.45;;;4.80;;
65375;SDS011;51976;47.332;9.404;2024-01-16T06:15:04;11.63;;;5.20;;
65375;SDS011;51976;47.332;9.404;2024-01-16T06:17:30;8.80;;;4.93;;
65375;SDS011;51976;47.332;9.404;2024-01-16T06:19:55;11.23;;;4.95;;
65375;SDS011;51976;47.332;9.404;2024-01-16T06:22:21;8.90;;;4.93;;
65375;SDS011;51976;47.332;9.404;2024-01-16T06:24:46;12.60;;;5.85;;
65375;SDS011;51976;47.332;9.404;2024-01-16T06:27:11;13.45;;;5.78;;
65375;SDS011;51976;47.332;9.404;2024-01-16T06:29:43;11.75;;;6.25;;
65375;SDS011;51976;47.332;9.404;2024-01-16T06:32:12;11.80;;;6.10;;
65375;SDS011;51976;47.332;9.404;2024-01-16T06:34:38;12.32;;;5.55;;
65375;SDS011;51976;47.332;9.404;2024-01-16T06:37:03;13.95;;;7.07;;
65375;SDS011;51976;47.332;9.404;2024-01-16T06:39:29;14.50;;;7.63;;
65375;SDS011;51976;47.332;9.404;2024-01-16T06:41:54;16.38;;;8.00;;
65375;SDS011;51976;47.332;9.404;2024-01-16T06:44:22;16.77;;;7.72;;
65375;SDS011;51976;47.332;9.404;2024-01-16T06:46:48;14.00;;;8.02;;
65375;SDS011;51976;47.332;9.404;2024-01-16T06:49:13;14.38;;;7.03;;
65375;SDS011;51976;47.332;9.404;2024-01-16T06:51:39;15.40;;;7.50;;
65375;SDS011;51976;47.332;9.404;2024-01-16T06:54:04;13.35;;;6.88;;
65375;SDS011;51976;47.332;9.404;2024-01-16T06:56:29;17.60;;;7.85;;
65375;SDS011;51976;47.332;9.404;2024-01-16T06:58:55;16.75;;;8.48;;
65375;SDS011;51976;47.332;9.404;2024-01-16T07:01:20;21.83;;;9.50;;
65375;SDS011;51976;47.332;9.404;2024-01-16T07:03:46;19.45;;;9.98;;
65375;SDS011;51976;47.332;9.404;2024-01-16T07:06:12;20.45;;;9.05;;
65375;SDS011;51976;47.332;9.404;2024-01-16T07:08:37;18.42;;;9.25;;
65375;SDS011;51976;47.332;9.404;2024-01-16T07:11:12;18.88;;;8.85;;
65375;SDS011;51976;47.332;9.404;2024-01-16T07:13:39;21.85;;;9.65;;
65375;SDS011;51976;47.332;9.404;2024-01-16T07:16:08;24.55;;;11.48;;
65375;SDS011;51976;47.332;9.404;2024-01-16T07:18:35;19.45;;;9.27;;
65375;SDS011;51976;47.332;9.404;2024-01-16T07:21:01;14.48;;;7.43;;
65375;SDS011;51976;47.332;9.404;2024-01-16T07:23:28;15.15;;;7.43;;
65375;SDS011;51976;47.332;9.404;2024-01-16T07:25:53;14.95;;;7.85;;
65375;SDS011;51976;47.332;9.404;2024-01-16T07:28:19;11.45;;;6.45;;
65375;SDS011;51976;47.332;9.404;2024-01-16T07:30:47;12.43;;;7.07;;
65375;SDS011;51976;47.332;9.404;2024-01-16T07:33:12;17.70;;;7.70;;
65375;SDS011;51976;47.332;9.404;2024-01-16T07:35:40;15.57;;;7.10;;
65375;SDS011;51976;47.332;9.404;2024-01-16T07:38:06;10.07;;;5.68;;
65375;SDS011;51976;47.332;9.404;2024-01-16T07:40:33;10.52;;;6.30;;
65375;SDS011;51976;47.332;9.404;2024-01-16T07:42:59;14.35;;;5.80;;
65375;SDS011;51976;47.332;9.404;2024-01-16T07:45:24;12.50;;;6.30;;
65375;SDS011;51976;47.332;9.404;2024-01-16T07:47:51;16.92;;;5.85;;
65375;SDS011;51976;47.332;9.404;2024-01-16T07:50:16;14.73;;;6.00;;
65375;SDS011;51976;47.332;9.404;2024-01-16T07:52:42;12.75;;;5.97;;
65375;SDS011;51976;47.332;9.404;2024-01-16T07:55:08;16.92;;;6.38;;
65375;SDS011;51976;47.332;9.404;2024-01-16T07:57:33;18.40;;;7.10;;
65375;SDS011;51976;47.332;9.404;2024-01-16T07:59:59;13.15;;;6.22;;
65375;SDS011;51976;47.332;9.404;2024-01-16T08:02:30;14.60;;;6.45;;
65375;SDS011;51976;47.332;9.404;2024-01-16T08:04:57;15.07;;;6.78;;
65375;SDS011;51976;47.332;9.404;2024-01-16T08:07:22;13.32;;;6.78;;
65375;SDS011;51976;47.332;9.404;2024-01-16T08:10:08;14.60;;;7.07;;
65375;SDS011;51976;47.332;9.404;2024-01-16T08:12:33;14.45;;;7.30;;
65375;SDS011;51976;47.332;9.404;2024-01-16T08:14:59;19.40;;;8.57;;
65375;SDS011;51976;47.332;9.404;2024-01-16T08:17:24;15.52;;;7.10;;
65375;SDS011;51976;47.332;9.404;2024-01-16T08:19:50;14.98;;;7.43;;
65375;SDS011;51976;47.332;9.404;2024-01-16T08:22:15;14.38;;;7.22;;
65375;SDS011;51976;47.332;9.404;2024-01-16T08:24:41;11.30;;;4.97;;
65375;SDS011;51976;47.332;9.404;2024-01-16T08:27:06;7.18;;;4.07;;
65375;SDS011;51976;47.332;9.404;2024-01-16T08:29:32;9.40;;;5.22;;
65375;SDS011;51976;47.332;9.404;2024-01-16T08:31:57;7.82;;;3.92;;
65375;SDS011;51976;47.332;9.404;2024-01-16T08:34:23;8.27;;;3.95;;
65375;SDS011;51976;47.332;9.404;2024-01-16T08:36:51;9.60;;;4.07;;
65375;SDS011;51976;47.332;9.404;2024-01-16T08:39:22;13.48;;;6.13;;
65375;SDS011;51976;47.332;9.404;2024-01-16T08:41:49;17.73;;;8.25;;
65375;SDS011;51976;47.332;9.404;2024-01-16T08:44:15;11.52;;;6.20;;
65375;SDS011;51976;47.332;9.404;2024-01-16T08:46:40;15.82;;;8.10;;
65375;SDS011;51976;47.332;9.404;2024-01-16T08:49:06;21.17;;;9.95;;
65375;SDS011;51976;47.332;9.404;2024-01-16T08:51:32;23.85;;;9.52;;
65375;SDS011;51976;47.332;9.404;2024-01-16T08:53:57;27.80;;;12.80;;
65375;SDS011;51976;47.332;9.404;2024-01-16T08:56:22;21.45;;;9.32;;
65375;SDS011;51976;47.332;9.404;2024-01-16T08:58:48;23.42;;;9.65;;
65375;SDS011;51976;47.332;9.404;2024-01-16T09:01:13;24.25;;;11.55;;
65375;SDS011;51976;47.332;9.404;2024-01-16T09:03:38;26.92;;;10.77;;
65375;SDS011;51976;47.332;9.404;2024-01-16T09:06:08;24.10;;;12.05;;
65375;SDS011;51976;47.332;9.404;2024-01-16T09:08:34;25.98;;;12.05;;
65375;SDS011;51976;47.332;9.404;2024-01-16T09:10:59;25.45;;;11.30;;
65375;SDS011;51976;47.332;9.404;2024-01-16T09:13:26;21.90;;;11.05;;
65375;SDS011;51976;47.332;9.404;2024-01-16T09:15:52;12.88;;;6.93;;
65375;SDS011;51976;47.332;9.404;2024-01-16T09:18:17;14.93;;;7.18;;
65375;SDS011;51976;47.332;9.404;2024-01-16T09:20:43;13.32;;;5.80;;
65375;SDS011;51976;47.332;9.404;2024-01-16T09:23:08;13.25;;;6.80;;
65375;SDS011;51976;47.332;9.404;2024-01-16T09:25:34;11.95;;;6.93;;
65375;SDS011;51976;47.332;9.404;2024-01-16T09:28:00;14.25;;;7.00;;
65375;SDS011;51976;47.332;9.404;2024-01-16T09:30:26;16.98;;;5.85;;
65375;SDS011;51976;47.332;9.404;2024-01-16T09:32:51;13.98;;;6.32;;
65375;SDS011;51976;47.332;9.404;2024-01-16T09:35:17;10.73;;;5.32;;
65375;SDS011;51976;47.332;9.404;2024-01-16T09:37:42;11.25;;;4.88;;
65375;SDS011;51976;47.332;9.404;2024-01-16T09:40:08;7.38;;;4.00;;
65375;SDS011;51976;47.332;9.404;2024-01-16T09:42:34;10.98;;;5.03;;
65375;SDS011;51976;47.332;9.404;2024-01-16T09:45:00;7.35;;;4.03;;
65375;SDS011;51976;47.332;9.404;2024-01-16T09:47:27;8.75;;;4.05;;
65375;SDS011;51976;47.332;9.404;2024-01-16T09:50:01;7.22;;;4.22;;
65375;SDS011;51976;47.332;9.404;2024-01-16T09:52:28;6.10;;;3.30;;
65375;SDS011;51976;47.332;9.404;2024-01-16T09:54:54;8.18;;;4.05;;
65375;SDS011;51976;47.332;9.404;2024-01-16T09:57:23;10.70;;;4.72;;
65375;SDS011;51976;47.332;9.404;2024-01-16T09:59:51;9.35;;;4.75;;
65375;SDS011;51976;47.332;9.404;2024-01-16T10:02:17;10.77;;;5.68;;
65375;SDS011;51976;47.332;9.404;2024-01-16T10:04:45;15.27;;;6.90;;
65375;SDS011;51976;47.332;9.404;2024-01-16T10:07:12;11.55;;;5.32;;
65375;SDS011;51976;47.332;9.404;2024-01-16T10:09:42;11.70;;;6.15;;
65375;SDS011;51976;47.332;9.404;2024-01-16T10:12:08;8.20;;;4.65;;
65375;SDS011;51976;47.332;9.404;2024-01-16T10:14:35;12.80;;;5.55;;
65375;SDS011;51976;47.332;9.404;2024-01-16T10:17:02;9.68;;;5.15;;
65375;SDS011;51976;47.332;9.404;2024-01-16T10:19:35;10.90;;;5.32;;
65375;SDS011;51976;47.332;9.404;2024-01-16T10:22:11;9.15;;;4.57;;
65375;SDS011;51976;47.332;9.404;2024-01-16T10:24:37;10.77;;;5.30;;
65375;SDS011;51976;47.332;9.404;2024-01-16T10:27:03;10.35;;;5.00;;
65375;SDS011;51976;47.332;9.404;2024-01-16T10:29:29;7.68;;;4.25;;
65375;SDS011;51976;47.332;9.404;2024-01-16T10:31:56;8.50;;;4.15;;
65375;SDS011;51976;47.332;9.404;2024-01-16T10:34:22;9.52;;;5.10;;
65375;SDS011;51976;47.332;9.404;2024-01-16T10:36:49;8.10;;;4.25;;
65375;SDS011;51976;47.332;9.404;2024-01-16T10:39:18;10.38;;;5.45;;
65375;SDS011;51976;47.332;9.404;2024-01-16T10:41:53;12.50;;;6.05;;
65375;SDS011;51976;47.332;9.404;2024-01-16T10:44:20;13.27;;;7.05;;
65375;SDS011;51976;47.332;9.404;2024-01-16T10:46:46;15.60;;;6.65;;
65375;SDS011;51976;47.332;9.404;2024-01-16T10:49:12;13.70;;;6.63;;
65375;SDS011;51976;47.332;9.404;2024-01-16T10:51:37;11.57;;;6.20;;
65375;SDS011;51976;47.332;9.404;2024-01-16T10:54:05;8.45;;;4.90;;
65375;SDS011;51976;47.332;9.404;2024-01-16T10:56:31;7.75;;;4.53;;
65375;SDS011;51976;47.332;9.404;2024-01-16T10:59:01;11.40;;;6.28;;
65375;SDS011;51976;47.332;9.404;2024-01-16T11:01:49;11.18;;;5.28;;
65375;SDS011;51976;47.332;9.404;2024-01-16T11:04:20;10.40;;;4.97;;
65375;SDS011;51976;47.332;9.404;2024-01-16T11:06:51;13.07;;;6.10;;
65375;SDS011;51976;47.332;9.404;2024-01-16T11:09:17;11.75;;;6.47;;
65375;SDS011;51976;47.332;9.404;2024-01-16T11:11:43;7.97;;;4.93;;
65375;SDS011;51976;47.332;9.404;2024-01-16T11:14:11;10.18;;;5.20;;
65375;SDS011;51976;47.332;9.404;2024-01-16T11:16:38;8.27;;;4.22;;
65375;SDS011;51976;47.332;9.404;2024-01-16T11:19:05;8.82;;;4.40;;
65375;SDS011;51976;47.332;9.404;2024-01-16T11:21:33;10.32;;;5.47;;
65375;SDS011;51976;47.332;9.404;2024-01-16T11:24:00;10.43;;;4.70;;
65375;SDS011;51976;47.332;9.404;2024-01-16T11:26:29;7.28;;;3.60;;
65375;SDS011;51976;47.332;9.404;2024-01-16T11:28:59;7.15;;;3.28;;
65375;SDS011;51976;47.332;9.404;2024-01-16T11:31:29;6.38;;;3.55;;
65375;SDS011;51976;47.332;9.404;2024-01-16T11:33:58;7.47;;;4.20;;
65375;SDS011;51976;47.332;9.404;2024-01-16T11:39:23;8.95;;;5.10;;
65375;SDS011;51976;47.332;9.404;2024-01-16T11:41:53;13.38;;;6.53;;
65375;SDS011;51976;47.332;9.404;2024-01-16T11:44:35;11.10;;;6.00;;
65375;SDS011;51976;47.332;9.404;2024-01-16T11:47:09;5.55;;;3.00;;
65375;SDS011;51976;47.332;9.404;2024-01-16T11:49:40;7.60;;;3.28;;
65375;SDS011;51976;47.332;9.404;2024-01-16T11:52:06;16.17;;;7.45;;
65375;SDS011;51976;47.332;9.404;2024-01-16T11:54:32;9.48;;;4.57;;
65375;SDS011;51976;47.332;9.404;2024-01-16T11:57:06;7.97;;;3.33;;
65375;SDS011;51976;47.332;9.404;2024-01-16T11:59:58;8.55;;;4.05;;
65375;SDS011;51976;47.332;9.404;2024-01-16T12:02:38;10.48;;;5.15;;
65375;SDS011;51976;47.332;9.404;2024-01-16T12:05:14;14.45;;;7.10;;
65375;SDS011;51976;47.332;9.404;2024-01-16T12:07:58;17.10;;;8.10;;
65375;SDS011;51976;47.332;9.404;2024-01-16T12:10:24;15.30;;;8.40;;
65375;SDS011;51976;47.332;9.404;2024-01-16T12:12:50;11.80;;;6.05;;
65375;SDS011;51976;47.332;9.404;2024-01-16T12:15:21;11.52;;;6.43;;
65375;SDS011;51976;47.332;9.404;2024-01-16T12:17:56;9.73;;;4.28;;
65375;SDS011;51976;47.332;9.404;2024-01-16T12:20:23;7.55;;;4.13;;
65375;SDS011;51976;47.332;9.404;2024-01-16T12:22:52;12.52;;;5.35;;
65375;SDS011;51976;47.332;9.404;2024-01-16T12:25:20;8.30;;;4.70;;
65375;SDS011;51976;47.332;9.404;2024-01-16T12:27:46;9.50;;;4.88;;
65375;SDS011;51976;47.332;9.404;2024-01-16T12:30:20;8.77;;;4.43;;
65375;SDS011;51976;47.332;9.404;2024-01-16T12:32:45;10.77;;;4.60;;
65375;SDS011;51976;47.332;9.404;2024-01-16T12:35:12;8.55;;;3.97;;
65375;SDS011;51976;47.332;9.404;2024-01-16T12:37:38;5.90;;;3.35;;
65375;SDS011;51976;47.332;9.404;2024-01-16T12:40:03;7.10;;;4.47;;
65375;SDS011;51976;47.332;9.404;2024-01-16T12:42:31;7.18;;;3.72;;
65375;SDS011;51976;47.332;9.404;2024-01-16T12:44:57;7.63;;;3.35;;
65375;SDS011;51976;47.332;9.404;2024-01-16T12:47:25;5.55;;;3.13;;
65375;SDS011;51976;47.332;9.404;2024-01-16T12:49:51;8.20;;;3.40;;
65375;SDS011;51976;47.332;9.404;2024-01-16T12:52:17;5.93;;;2.97;;
65375;SDS011;51976;47.332;9.404;2024-01-16T12:54:46;6.05;;;2.88;;
65375;SDS011;51976;47.332;9.404;2024-01-16T12:57:23;4.57;;;2.33;;
65375;SDS011;51976;47.332;9.404;2024-01-16T12:59:48;10.15;;;2.60;;
65375;SDS011;51976;47.332;9.404;2024-01-16T13:02:21;7.47;;;2.88;;
65375;SDS011;51976;47.332;9.404;2024-01-16T13:04:48;4.70;;;3.05;;
65375;SDS011;51976;47.332;9.404;2024-01-16T13:07:22;4.53;;;2.83;;
65375;SDS011;51976;47.332;9.404;2024-01-16T13:09:48;4.20;;;2.30;;
65375;SDS011;51976;47.332;9.404;2024-01-16T13:12:19;5.82;;;2.85;;
65375;SDS011;51976;47.332;9.404;2024-01-16T13:14:46;4.00;;;2.47;;
65375;SDS011;51976;47.332;9.404;2024-01-16T13:17:11;9.77;;;2.72;;
65375;SDS011;51976;47.332;9.404;2024-01-16T13:19:37;4.78;;;2.53;;
65375;SDS011;51976;47.332;9.404;2024-01-16T13:22:06;3.67;;;2.13;;
65375;SDS011;51976;47.332;9.404;2024-01-16T13:24:31;3.40;;;2.03;;
65375;SDS011;51976;47.332;9.404;2024-01-16T13:26:57;4.20;;;2.10;;
65375;SDS011;51976;47.332;9.404;2024-01-16T13:29:23;4.50;;;2.15;;
65375;SDS011;51976;47.332;9.404;2024-01-16T13:31:49;4.22;;;2.20;;
65375;SDS011;51976;47.332;9.404;2024-01-16T13:34:20;7.97;;;2.67;;
65375;SDS011;51976;47.332;9.404;2024-01-16T13:36:48;4.85;;;2.25;;
65375;SDS011;51976;47.332;9.404;2024-01-16T13:39:16;5.68;;;2.75;;
65375;SDS011;51976;47.332;9.404;2024-01-16T13:41:42;5.50;;;3.20;;
65375;SDS011;51976;47.332;9.404;2024-01-16T13:44:08;4.40;;;2.55;;
65375;SDS011;51976;47.332;9.404;2024-01-16T13:46:36;4.13;;;2.30;;
65375;SDS011;51976;47.332;9.404;2024-01-16T13:49:02;3.80;;;2.30;;
65375;SDS011;51976;47.332;9.404;2024-01-16T13:51:28;4.40;;;2.40;;
65375;SDS011;51976;47.332;9.404;2024-01-16T13:53:53;3.85;;;2.05;;
65375;SDS011;51976;47.332;9.404;2024-01-16T13:56:18;4.10;;;2.22;;
65375;SDS011;51976;47.332;9.404;2024-01-16T13:58:46;2.65;;;1.88;;
65375;SDS011;51976;47.332;9.404;2024-01-16T14:01:11;3.08;;;1.85;;
65375;SDS011;51976;47.332;9.404;2024-01-16T14:03:37;2.63;;;1.63;;
65375;SDS011;51976;47.332;9.404;2024-01-16T14:06:03;3.20;;;1.38;;
65375;SDS011;51976;47.332;9.404;2024-01-16T14:08:29;2.88;;;1.80;;
65375;SDS011;51976;47.332;9.404;2024-01-16T14:10:54;4.22;;;2.20;;
65375;SDS011;51976;47.332;9.404;2024-01-16T14:13:21;6.40;;;2.45;;
65375;SDS011;51976;47.332;9.404;2024-01-16T14:15:46;4.15;;;2.17;;
65375;SDS011;51976;47.332;9.404;2024-01-16T14:18:12;5.55;;;3.10;;
65375;SDS011;51976;47.332;9.404;2024-01-16T14:20:37;8.00;;;2.95;;
65375;SDS011;51976;47.332;9.404;2024-01-16T14:23:04;4.18;;;2.25;;
65375;SDS011;51976;47.332;9.404;2024-01-16T14:25:29;5.50;;;2.28;;
65375;SDS011;51976;47.332;9.404;2024-01-16T14:27:58;4.90;;;2.33;;
65375;SDS011;51976;47.332;9.404;2024-01-16T14:30:25;2.67;;;1.60;;
65375;SDS011;51976;47.332;9.404;2024-01-16T14:32:52;4.82;;;2.60;;
65375;SDS011;51976;47.332;9.404;2024-01-16T14:35:21;10.93;;;5.57;;
65375;SDS011;51976;47.332;9.404;2024-01-16T14:37:48;9.10;;;4.88;;
65375;SDS011;51976;47.332;9.404;2024-01-16T14:40:14;8.20;;;4.45;;
65375;SDS011;51976;47.332;9.404;2024-01-16T14:42:50;6.65;;;4.03;;